Atlanta, Nebraska
Current Conditions -  °F | °C
As of 8:55 AM on Thursday 30 Oct 2014 (Local Time) from KHDE Reporting Station
Clear Clear  
Wind Chill: 38°   Ceiling: Unl
Heat Index: 44°   Visibility: 10mi
Dew Point: 31°   Wind: 9mph
Humidity: 62%   Direction: 310°NW
Pressure: 30.17"   Gusts: NA
Location:  40.37°N, 99.47°W
Report Text: KHDE 301355Z AUTO 31008KT 10SM CLR 06/00 A3017 RMK AO2 T00641005
Loading
Personal Weather Stations






























Interactive Weather Map New forecast layout! Learn more

10-Day Weather Forecast

Advertisements
Track Severe Weather on mobile